Time;durP1;ratioP1;P1;durP2;ratioP2;P2;SDS_P1;SDS_P2;PMS_P1;PMS_P2;Temp;Humidity;BMP_temperature;BMP_pressure;BME280_temperature;BME280_humidity;BME280_pressure;Samples;Min_cycle;Max_cycle;Signal;HPM_P1;HPM_P2
2022/11/30 00:00:58;;;;;;;17.27;12.70;;;7.30;99.90;;;;;;5095293;28;20195;-70
2022/11/30 00:03:25;;;;;;;17.23;12.43;;;7.20;99.90;;;;;;5077020;28;20175;-71
2022/11/30 00:05:51;;;;;;;18.20;11.97;;;7.30;99.90;;;;;;5095004;28;20241;-71
2022/11/30 00:08:17;;;;;;;18.17;12.10;;;7.40;99.90;;;;;;5095236;28;20179;-70
2022/11/30 00:10:43;;;;;;;16.73;12.70;;;7.20;99.90;;;;;;5094707;28;20171;-70
2022/11/30 00:13:09;;;;;;;17.70;13.00;;;7.30;99.90;;;;;;5095072;28;20202;-70
2022/11/30 00:15:36;;;;;;;16.83;12.37;;;7.30;99.90;;;;;;5094916;28;20191;-70
2022/11/30 00:18:02;;;;;;;20.07;12.93;;;7.40;99.90;;;;;;5094844;28;20710;-70
2022/11/30 00:20:28;;;;;;;18.67;12.43;;;7.40;99.90;;;;;;5094687;28;20164;-71
2022/11/30 00:22:55;;;;;;;18.27;12.23;;;7.30;99.90;;;;;;5094880;28;20168;-71
2022/11/30 00:25:24;;;;;;;17.77;12.27;;;7.30;99.90;;;;;;5094499;28;20167;-70
2022/11/30 00:27:52;;;;;;;19.17;12.17;;;7.40;99.90;;;;;;5094663;28;20247;-71
2022/11/30 00:30:20;;;;;;;18.57;12.63;;;7.40;99.90;;;;;;5094748;28;20207;-71
2022/11/30 00:32:46;;;;;;;18.70;12.13;;;7.40;99.90;;;;;;5094302;28;20668;-71
2022/11/30 00:35:12;;;;;;;18.77;12.93;;;7.40;99.90;;;;;;5094541;28;20172;-71
2022/11/30 00:37:37;;;;;;;18.77;13.10;;;7.40;99.90;;;;;;5094489;28;20202;-71
2022/11/30 00:40:04;;;;;;;20.73;12.63;;;7.20;99.90;;;;;;5075971;28;20639;-70
2022/11/30 00:42:30;;;;;;;18.13;12.30;;;7.00;99.90;;;;;;5076157;28;20532;-70
2022/11/30 00:44:55;;;;;;;18.60;12.57;;;6.90;99.90;;;;;;5094378;28;20187;-71
2022/11/30 00:47:21;;;;;;;19.37;13.13;;;7.00;99.90;;;;;;5094258;28;20191;-71
2022/11/30 00:49:47;;;;;;;18.53;12.63;;;7.00;99.90;;;;;;5094237;28;20167;-70
2022/11/30 00:52:12;;;;;;;19.63;12.60;;;7.00;99.90;;;;;;5094286;28;20160;-71
2022/11/30 00:54:38;;;;;;;20.27;12.97;;;7.10;99.90;;;;;;5093900;28;20277;-71
2022/11/30 00:57:03;;;;;;;19.13;12.40;;;7.00;99.90;;;;;;5094091;28;20172;-71
2022/11/30 00:59:29;;;;;;;19.33;12.27;;;7.20;99.90;;;;;;5093967;28;20180;-71
2022/11/30 01:01:54;;;;;;;21.10;12.57;;;7.20;99.90;;;;;;5094045;28;20168;-71
2022/11/30 01:04:20;;;;;;;21.07;13.17;;;7.20;99.90;;;;;;5093897;28;20780;-71
2022/11/30 01:06:46;;;;;;;17.87;12.47;;;7.20;99.90;;;;;;5094010;28;20172;-71
2022/11/30 01:09:15;;;;;;;17.93;12.30;;;7.20;99.90;;;;;;5093683;28;20175;-70
2022/11/30 01:11:41;;;;;;;20.27;13.13;;;7.20;99.90;;;;;;5093942;28;20172;-71
2022/11/30 01:14:06;;;;;;;22.50;13.60;;;7.20;99.90;;;;;;5093700;28;20179;-70
2022/11/30 01:16:32;;;;;;;22.70;14.30;;;7.20;99.90;;;;;;5093949;28;20182;-71
2022/11/30 01:18:59;;;;;;;22.60;14.00;;;7.20;99.90;;;;;;5093467;28;20216;-71
2022/11/30 01:21:31;;;;;;;22.80;14.37;;;7.30;99.90;;;;;;5093672;28;20178;-71
2022/11/30 01:23:56;;;;;;;23.33;14.43;;;7.30;99.90;;;;;;5093466;28;20183;-71
2022/11/30 01:26:22;;;;;;;25.60;14.53;;;7.30;99.90;;;;;;5093797;28;20159;-71
2022/11/30 01:28:52;;;;;;;25.23;14.27;;;7.40;99.90;;;;;;5093625;28;20229;-71
2022/11/30 01:31:19;;;;;;;26.97;15.07;;;7.40;99.90;;;;;;5093340;28;20203;-71
2022/11/30 01:33:52;;;;;;;26.50;14.43;;;7.40;99.90;;;;;;5093335;28;20298;-71
2022/11/30 01:36:22;;;;;;;33.60;17.10;;;7.50;99.90;;;;;;5093670;28;20168;-70
2022/11/30 01:38:53;;;;;;;31.93;15.57;;;7.50;99.90;;;;;;5093083;28;20215;-71
2022/11/30 01:41:23;;;;;;;31.47;15.57;;;7.50;99.90;;;;;;5093427;28;20164;-71
2022/11/30 01:43:54;;;;;;;34.20;16.67;;;7.50;99.90;;;;;;5093178;28;20225;-71
2022/11/30 01:46:26;;;;;;;26.03;15.00;;;7.60;99.90;;;;;;5093622;28;20168;-70
2022/11/30 01:49:17;;;;;;;30.77;16.33;;;7.60;99.90;;;;;;5093275;28;20209;-70
2022/11/30 01:51:51;;;;;;;32.73;15.97;;;7.60;99.90;;;;;;5083395;28;20172;-70
2022/11/30 01:54:26;;;;;;;29.37;15.50;;;7.60;99.90;;;;;;5093205;28;20252;-70
2022/11/30 01:57:06;;;;;;;26.27;15.63;;;7.60;99.90;;;;;;5075119;28;20206;-70
2022/11/30 01:59:32;;;;;;;23.83;13.77;;;7.50;99.90;;;;;;5093270;28;20191;-70
2022/11/30 02:01:58;;;;;;;25.40;14.70;;;7.60;99.90;;;;;;5093251;28;20612;-71
2022/11/30 02:04:34;;;;;;;25.90;14.70;;;7.50;99.90;;;;;;5093009;28;20198;-71
2022/11/30 02:07:04;;;;;;;27.00;14.73;;;7.40;99.90;;;;;;5092745;28;20182;-71
2022/11/30 02:09:34;;;;;;;26.40;14.73;;;7.30;99.90;;;;;;5097298;28;20180;-71
2022/11/30 02:12:03;;;;;;;27.97;14.90;;;7.40;99.90;;;;;;5097550;28;20175;-71
2022/11/30 02:14:53;;;;;;;29.23;16.40;;;7.50;99.90;;;;;;5097126;28;20176;-71
2022/11/30 02:17:51;;;;;;;31.33;16.90;;;7.50;99.90;;;;;;5097232;28;20186;-71
2022/11/30 02:21:07;;;;;;;32.47;16.13;;;7.60;99.90;;;;;;5078569;28;20543;-71
2022/11/30 02:23:39;;;;;;;34.37;16.77;;;7.30;99.90;;;;;;5014954;28;20749;-71
2022/11/30 02:26:26;;;;;;;33.87;17.70;;;7.50;99.90;;;;;;5083573;28;20627;-71
2022/11/30 02:29:03;;;;;;;36.03;18.20;;;7.50;99.90;;;;;;5097030;28;20172;-71
2022/11/30 02:31:46;;;;;;;35.30;19.03;;;7.50;99.90;;;;;;5096972;28;20182;-71
2022/11/30 02:34:14;;;;;;;39.03;19.93;;;7.50;99.90;;;;;;5096712;28;20219;-70
2022/11/30 02:36:41;;;;;;;37.73;19.03;;;7.40;99.90;;;;;;5096749;28;20171;-70
2022/11/30 02:39:09;;;;;;;41.20;19.57;;;7.50;99.90;;;;;;5096793;28;20330;-70
2022/11/30 02:41:39;;;;;;;41.27;20.63;;;7.60;99.90;;;;;;5096771;28;20180;-70
2022/11/30 02:44:08;;;;;;;44.13;20.77;;;7.50;99.90;;;;;;5096710;28;20175;-70
2022/11/30 02:46:52;;;;;;;40.80;19.33;;;7.50;99.90;;;;;;5096637;28;20164;-71
2022/11/30 02:49:42;;;;;;;43.03;20.50;;;7.50;99.90;;;;;;5096380;28;20156;-70
2022/11/30 02:52:10;;;;;;;35.83;19.33;;;7.50;99.90;;;;;;5096838;28;20214;-71
2022/11/30 02:54:35;;;;;;;39.93;19.47;;;7.30;99.90;;;;;;5096450;28;20194;-71
2022/11/30 02:57:01;;;;;;;41.97;20.33;;;7.40;99.90;;;;;;5096492;28;20647;-71
2022/11/30 02:59:27;;;;;;;47.03;22.00;;;7.50;99.90;;;;;;5096345;28;20176;-71
2022/11/30 03:01:52;;;;;;;44.93;20.93;;;7.60;99.90;;;;;;5096453;28;20222;-71
2022/11/30 03:04:18;;;;;;;42.00;20.83;;;7.60;99.90;;;;;;5096009;28;20180;-71
2022/11/30 03:06:44;;;;;;;44.60;22.47;;;7.70;99.90;;;;;;5096212;28;20168;-71
2022/11/30 03:09:12;;;;;;;45.77;21.90;;;7.70;99.90;;;;;;5096083;28;20168;-71
2022/11/30 03:11:38;;;;;;;44.37;20.87;;;7.60;99.90;;;;;;5096374;28;20172;-71
2022/11/30 03:14:04;;;;;;;48.83;22.33;;;7.50;99.90;;;;;;5096233;28;20183;-71
2022/11/30 03:16:30;;;;;;;48.07;22.17;;;7.50;99.90;;;;;;5096339;28;20172;-70
2022/11/30 03:18:59;;;;;;;46.40;22.13;;;7.50;99.90;;;;;;5094277;28;20261;-70
2022/11/30 03:21:25;;;;;;;48.47;22.87;;;7.30;99.90;;;;;;5095919;28;20172;-70
2022/11/30 03:23:51;;;;;;;50.47;22.70;;;7.30;99.90;;;;;;5077800;28;20174;-70
2022/11/30 03:26:16;;;;;;;49.30;22.60;;;7.40;99.90;;;;;;5096078;28;20635;-70
2022/11/30 03:28:42;;;;;;;49.60;23.13;;;7.30;99.90;;;;;;5095865;28;20188;-71
2022/11/30 03:31:11;;;;;;;47.23;22.57;;;7.40;99.90;;;;;;5095758;28;20172;-71
2022/11/30 03:33:37;;;;;;;49.77;23.17;;;7.30;99.90;;;;;;5095420;28;20701;-71
2022/11/30 03:36:08;;;;;;;52.43;24.30;;;7.40;99.90;;;;;;5095667;28;20255;-70
2022/11/30 03:38:34;;;;;;;50.47;23.00;;;7.40;99.90;;;;;;5095539;28;20207;-70
2022/11/30 03:41:06;;;;;;;52.70;23.70;;;7.40;99.90;;;;;;5095472;28;20172;-71
2022/11/30 03:43:34;;;;;;;55.73;24.30;;;7.40;99.90;;;;;;5095414;28;20180;-70
2022/11/30 03:46:00;;;;;;;52.27;24.10;;;7.50;99.90;;;;;;5095568;28;20176;-71
2022/11/30 03:48:25;;;;;;;52.23;24.90;;;7.50;99.90;;;;;;5077027;28;20207;-70
2022/11/30 03:50:51;;;;;;;51.93;23.33;;;7.40;99.90;;;;;;5095168;28;20642;-70
2022/11/30 03:53:21;;;;;;;56.13;23.87;;;7.30;99.90;;;;;;5095518;28;20164;-70
2022/11/30 03:55:56;;;;;;;57.27;24.37;;;7.30;99.90;;;;;;5077266;28;20180;-71
2022/11/30 03:58:23;;;;;;;64.00;23.43;;;7.30;99.90;;;;;;5095218;28;20195;-70
2022/11/30 04:00:49;;;;;;;62.37;27.17;;;7.20;99.90;;;;;;5095325;28;20255;-70
2022/11/30 04:03:15;;;;;;;56.57;23.90;;;7.30;99.90;;;;;;5094698;28;20183;-71
2022/11/30 04:05:41;;;;;;;54.83;24.20;;;7.20;99.90;;;;;;5095065;28;20172;-71
2022/11/30 04:08:10;;;;;;;62.80;25.63;;;7.30;99.90;;;;;;5095253;28;20164;-71
2022/11/30 04:10:35;;;;;;;59.70;25.80;;;7.20;99.90;;;;;;5094950;28;20164;-71
2022/11/30 04:13:01;;;;;;;58.63;26.07;;;7.30;99.90;;;;;;5094928;28;20172;-70
2022/11/30 04:15:27;;;;;;;57.03;25.73;;;7.20;99.90;;;;;;5094641;28;20180;-71
2022/11/30 04:17:52;;;;;;;63.57;27.53;;;7.10;99.90;;;;;;5094047;28;20655;-71
2022/11/30 04:20:18;;;;;;;64.10;25.57;;;7.30;99.90;;;;;;5094786;28;20221;-71
2022/11/30 04:22:43;;;;;;;62.00;26.70;;;7.40;99.90;;;;;;5094893;28;20172;-71
2022/11/30 04:25:12;;;;;;;70.33;27.67;;;7.40;99.90;;;;;;5094712;28;20168;-71
2022/11/30 04:27:38;;;;;;;68.23;26.30;;;7.40;99.90;;;;;;5094539;28;20180;-71
2022/11/30 04:30:04;;;;;;;74.23;27.00;;;7.30;99.90;;;;;;5094211;28;20167;-70
2022/11/30 04:32:36;;;;;;;59.10;25.67;;;7.20;99.90;;;;;;5093995;28;20172;-72
2022/11/30 04:35:02;;;;;;;60.33;24.80;;;7.20;99.90;;;;;;5094440;28;20176;-71
2022/11/30 04:37:27;;;;;;;61.43;26.00;;;7.20;99.90;;;;;;5094067;28;20221;-70
2022/11/30 04:39:53;;;;;;;57.33;25.20;;;7.30;99.90;;;;;;5094233;28;20160;-71
2022/11/30 04:42:21;;;;;;;58.40;25.53;;;7.30;99.90;;;;;;5093825;28;20223;-71
2022/11/30 04:44:50;;;;;;;62.43;24.83;;;7.30;99.90;;;;;;5094333;28;20179;-71
2022/11/30 04:47:15;;;;;;;66.73;24.23;;;7.30;99.90;;;;;;5075573;28;20196;-71
2022/11/30 04:49:41;;;;;;;63.73;25.03;;;7.20;99.90;;;;;;5094108;28;20635;-71
2022/11/30 04:52:06;;;;;;;60.63;24.30;;;7.20;99.90;;;;;;5059231;28;20179;-70
2022/11/30 04:54:35;;;;;;;59.37;23.47;;;7.30;99.90;;;;;;5093371;28;20173;-70
2022/11/30 04:57:01;;;;;;;62.00;24.00;;;7.30;99.90;;;;;;5093920;28;20169;-70
2022/11/30 04:59:26;;;;;;;61.50;23.03;;;7.20;99.90;;;;;;5093916;28;20222;-70
2022/11/30 05:01:53;;;;;;;60.60;24.30;;;7.10;99.90;;;;;;5093659;28;20635;-70
2022/11/30 05:04:18;;;;;;;60.93;22.50;;;7.20;99.90;;;;;;5093859;28;20208;-71
2022/11/30 05:06:44;;;;;;;52.20;21.87;;;7.20;99.90;;;;;;5093517;28;20176;-71
2022/11/30 05:09:09;;;;;;;51.37;20.97;;;7.20;99.90;;;;;;5093527;28;20255;-70
2022/11/30 05:11:35;;;;;;;52.97;20.90;;;7.20;99.90;;;;;;5093591;28;20171;-70
2022/11/30 05:14:01;;;;;;;50.57;21.50;;;7.10;99.90;;;;;;5093267;28;20270;-70
2022/11/30 05:16:29;;;;;;;49.93;20.40;;;7.10;99.90;;;;;;5093543;28;20192;-71
2022/11/30 05:18:55;;;;;;;48.23;20.67;;;7.20;99.90;;;;;;5093489;28;20667;-70
2022/11/30 05:21:21;;;;;;;46.00;18.73;;;7.20;99.90;;;;;;5093377;28;20175;-71
2022/11/30 05:23:51;;;;;;;45.73;19.80;;;7.00;99.90;;;;;;5093352;28;20171;-71
2022/11/30 05:26:17;;;;;;;48.97;19.73;;;6.90;99.90;;;;;;5093332;28;20164;-71
2022/11/30 05:28:42;;;;;;;67.00;19.97;;;6.90;99.90;;;;;;5074934;28;20654;-70
2022/11/30 05:31:08;;;;;;;44.10;19.50;;;6.80;99.90;;;;;;5093181;28;20232;-71
2022/11/30 05:33:34;;;;;;;50.60;20.90;;;6.60;99.90;;;;;;5092970;28;20216;-70
2022/11/30 05:35:59;;;;;;;51.67;20.50;;;6.70;99.90;;;;;;5091973;28;20184;-71
2022/11/30 05:38:25;;;;;;;57.23;21.50;;;6.70;99.90;;;;;;5092813;28;20204;-71
2022/11/30 05:40:51;;;;;;;58.23;22.43;;;6.70;99.90;;;;;;5092846;28;20638;-71
2022/11/30 05:43:17;;;;;;;55.93;21.77;;;6.60;99.90;;;;;;5091838;28;20198;-71
2022/11/30 05:45:43;;;;;;;49.10;21.23;;;6.50;99.90;;;;;;5092697;28;20163;-71
2022/11/30 05:48:09;;;;;;;50.57;21.43;;;6.40;99.90;;;;;;5093014;28;20600;-70
2022/11/30 05:50:34;;;;;;;48.67;20.90;;;6.30;99.90;;;;;;5092596;28;20194;-70
2022/11/30 05:53:00;;;;;;;59.03;21.80;;;6.20;99.90;;;;;;5092349;28;20205;-71
2022/11/30 05:55:29;;;;;;;43.73;20.30;;;6.10;99.90;;;;;;5092480;28;20164;-71
2022/11/30 05:57:55;;;;;;;55.90;23.77;;;6.10;99.90;;;;;;5092154;28;20237;-71
2022/11/30 06:00:21;;;;;;;58.53;22.63;;;6.20;99.90;;;;;;5092910;28;20168;-71
2022/11/30 06:02:50;;;;;;;56.83;23.30;;;6.40;99.90;;;;;;5092575;28;20229;-71
2022/11/30 06:05:15;;;;;;;53.23;23.43;;;6.40;99.90;;;;;;5092306;28;20197;-71
2022/11/30 06:07:41;;;;;;;55.67;23.50;;;6.50;99.90;;;;;;5092630;28;20175;-70
2022/11/30 06:10:07;;;;;;;61.00;22.97;;;6.60;99.90;;;;;;5092714;28;20205;-70
2022/11/30 06:12:33;;;;;;;57.23;24.10;;;6.70;99.90;;;;;;5091211;28;20194;-71
2022/11/30 06:14:58;;;;;;;54.97;24.23;;;6.90;99.90;;;;;;5074034;28;20175;-70
2022/11/30 06:17:24;;;;;;;57.83;24.20;;;6.80;99.90;;;;;;5092526;28;20176;-71
2022/11/30 06:19:49;;;;;;;54.50;22.97;;;6.80;99.90;;;;;;5092870;28;20274;-70
2022/11/30 06:22:18;;;;;;;52.37;22.83;;;6.70;99.90;;;;;;5091991;28;20175;-71
2022/11/30 06:24:43;;;;;;;51.90;22.80;;;6.50;99.90;;;;;;5091555;28;20172;-71
2022/11/30 06:27:09;;;;;;;54.87;23.67;;;6.40;99.90;;;;;;5091679;28;20186;-70
2022/11/30 06:29:34;;;;;;;51.67;22.90;;;6.50;99.90;;;;;;5091986;28;20242;-72
2022/11/30 06:32:03;;;;;;;50.10;23.20;;;6.60;99.90;;;;;;5091784;28;20229;-70
2022/11/30 06:34:31;;;;;;;51.17;22.73;;;6.50;99.90;;;;;;5091373;28;20215;-70
2022/11/30 06:36:57;;;;;;;60.57;26.30;;;6.40;99.90;;;;;;5091595;28;20168;-71
2022/11/30 06:39:23;;;;;;;57.57;24.00;;;6.40;99.90;;;;;;5090546;28;20604;-72
2022/11/30 06:41:48;;;;;;;56.77;24.17;;;6.40;99.90;;;;;;5091623;28;20172;-72
2022/11/30 06:44:14;;;;;;;51.93;22.90;;;6.30;99.90;;;;;;5091920;28;20175;-71
2022/11/30 06:46:39;;;;;;;55.50;24.03;;;6.30;99.90;;;;;;5091220;28;20274;-71
2022/11/30 06:49:06;;;;;;;54.80;22.87;;;6.40;99.90;;;;;;5091742;28;20172;-70
2022/11/30 06:51:32;;;;;;;47.93;21.90;;;6.30;99.90;;;;;;5091302;28;20160;-73
2022/11/30 06:53:58;;;;;;;53.43;23.63;;;6.20;99.90;;;;;;5092754;28;20213;-71
2022/11/30 06:56:26;;;;;;;56.90;22.77;;;6.20;99.90;;;;;;5094657;28;20538;-71
2022/11/30 06:58:55;;;;;;;54.47;23.63;;;6.20;99.90;;;;;;5094984;28;20211;-71
2022/11/30 07:01:20;;;;;;;55.83;24.77;;;6.30;99.90;;;;;;5094712;28;20210;-72
2022/11/30 07:03:48;;;;;;;57.10;24.73;;;6.40;99.90;;;;;;5095162;28;20275;-72
2022/11/30 07:06:14;;;;;;;55.40;25.13;;;6.40;99.90;;;;;;5095619;28;20534;-71
2022/11/30 07:08:42;;;;;;;58.10;23.47;;;6.40;99.90;;;;;;5094772;28;20176;-71
2022/11/30 07:11:09;;;;;;;54.77;22.93;;;6.30;99.90;;;;;;5093968;28;20569;-71
2022/11/30 07:13:38;;;;;;;45.20;21.27;;;6.20;99.90;;;;;;5094716;28;20249;-71
2022/11/30 07:16:05;;;;;;;54.47;22.57;;;6.20;99.90;;;;;;5094747;28;20560;-71
2022/11/30 07:18:32;;;;;;;52.07;23.80;;;6.30;99.90;;;;;;5094945;28;20222;-71
2022/11/30 07:20:59;;;;;;;55.60;23.10;;;6.40;99.90;;;;;;5095017;28;20168;-71
2022/11/30 07:26:10;;;;;;;54.13;22.70;;;6.70;99.90;;;;;;5095004;28;20183;-71
2022/11/30 07:28:45;;;;;;;53.13;23.73;;;6.80;99.90;;;;;;5094599;28;20178;-71
2022/11/30 07:31:18;;;;;;;54.50;22.83;;;6.90;99.90;;;;;;5094677;28;20167;-71
2022/11/30 07:33:44;;;;;;;56.23;22.90;;;7.00;99.90;;;;;;5094387;28;20239;-71
2022/11/30 07:36:10;;;;;;;52.87;21.80;;;7.10;99.90;;;;;;5094592;28;20215;-69
2022/11/30 07:38:36;;;;;;;48.70;22.87;;;7.00;99.90;;;;;;5094517;28;20212;-70
2022/11/30 07:41:01;;;;;;;57.07;23.50;;;7.00;99.90;;;;;;5094269;28;20715;-72
2022/11/30 07:43:28;;;;;;;54.27;23.40;;;6.80;99.90;;;;;;5094694;28;20180;-72
2022/11/30 07:45:56;;;;;;;48.70;22.27;;;6.80;99.90;;;;;;5094414;28;20500;-71
2022/11/30 07:48:22;;;;;;;52.33;21.37;;;6.80;99.90;;;;;;5094461;28;20223;-75
2022/11/30 07:50:48;;;;;;;45.43;22.27;;;6.90;99.90;;;;;;5093899;28;20223;-71
2022/11/30 07:53:17;;;;;;;47.87;22.77;;;7.00;99.90;;;;;;5094207;28;20172;-71
2022/11/30 07:55:43;;;;;;;56.37;23.83;;;7.10;99.90;;;;;;5093718;28;20168;-71
2022/11/30 07:58:10;;;;;;;49.40;23.40;;;7.20;99.90;;;;;;5094660;28;20200;-73
2022/11/30 08:00:37;;;;;;;51.40;23.27;;;7.30;99.90;;;;;;5093864;28;20198;-72
2022/11/30 08:03:03;;;;;;;49.23;22.93;;;7.40;99.90;;;;;;5094132;28;20168;-73
2022/11/30 08:05:29;;;;;;;50.37;23.47;;;7.40;99.90;;;;;;5073970;28;20178;-72
2022/11/30 08:07:55;;;;;;;54.70;24.40;;;7.20;99.90;;;;;;5094168;28;20172;-72
2022/11/30 08:10:21;;;;;;;51.97;24.13;;;7.20;99.90;;;;;;5093295;28;20691;-72
2022/11/30 08:12:47;;;;;;;52.37;24.83;;;7.20;99.90;;;;;;5093273;28;20267;-71
2022/11/30 08:15:13;;;;;;;52.37;24.23;;;7.30;99.90;;;;;;5093240;28;20258;-71
2022/11/30 08:17:39;;;;;;;51.27;24.13;;;7.40;99.90;;;;;;5094154;28;20211;-73
2022/11/30 08:20:06;;;;;;;47.57;22.83;;;7.30;99.90;;;;;;5075725;28;20168;-72
2022/11/30 08:22:33;;;;;;;52.17;24.80;;;7.20;99.90;;;;;;5093601;28;20203;-72
2022/11/30 08:24:58;;;;;;;51.60;24.10;;;7.30;99.90;;;;;;5090328;28;20172;-71
2022/11/30 08:27:24;;;;;;;54.17;24.70;;;7.40;99.90;;;;;;5089580;28;20176;-72
2022/11/30 08:29:53;;;;;;;57.37;24.73;;;7.50;99.90;;;;;;5082375;28;20656;-71
2022/11/30 08:32:19;;;;;;;50.83;24.03;;;7.50;99.90;;;;;;5098531;28;20195;-72
2022/11/30 08:34:45;;;;;;;47.10;22.57;;;7.60;99.90;;;;;;5091340;28;20243;-72
2022/11/30 08:37:11;;;;;;;42.50;22.30;;;7.60;99.90;;;;;;5096121;28;20542;-72
2022/11/30 08:39:36;;;;;;;48.57;22.70;;;7.60;99.90;;;;;;5090068;28;20212;-72
2022/11/30 08:42:02;;;;;;;44.63;21.83;;;7.60;99.90;;;;;;5098225;28;20252;-71
2022/11/30 08:44:28;;;;;;;42.50;22.20;;;7.50;99.90;;;;;;5073146;28;20524;-72
2022/11/30 08:46:56;;;;;;;45.63;21.70;;;7.40;99.90;;;;;;5098819;28;20216;-72
2022/11/30 08:49:22;;;;;;;44.97;21.47;;;7.50;99.90;;;;;;5089657;28;20173;-72
2022/11/30 08:51:50;;;;;;;43.63;21.17;;;7.50;99.90;;;;;;5110434;28;20623;-72
2022/11/30 08:54:15;;;;;;;44.10;21.07;;;7.50;99.90;;;;;;5113517;28;20201;-71
2022/11/30 08:56:41;;;;;;;42.77;21.53;;;7.70;99.90;;;;;;5113295;28;20206;-72
2022/11/30 08:59:06;;;;;;;41.17;20.63;;;7.80;99.90;;;;;;5089562;28;20227;-72
2022/11/30 09:01:32;;;;;;;40.63;20.20;;;7.70;99.90;;;;;;5108003;28;20176;-73
2022/11/30 09:03:57;;;;;;;44.60;21.97;;;7.70;99.90;;;;;;5090466;28;20761;-71
2022/11/30 09:06:26;;;;;;;38.77;20.27;;;7.40;99.90;;;;;;5110251;28;20185;-72
2022/11/30 09:08:54;;;;;;;40.30;20.47;;;7.20;99.90;;;;;;5112628;28;20183;-74
2022/11/30 09:11:22;;;;;;;37.83;19.63;;;7.30;99.90;;;;;;5095188;28;22239;-73
2022/11/30 09:13:49;;;;;;;33.77;19.03;;;7.40;99.90;;;;;;5085490;28;20192;-73
2022/11/30 09:16:17;;;;;;;39.50;19.87;;;7.50;99.90;;;;;;5092340;28;20537;-73
2022/11/30 09:18:43;;;;;;;38.60;20.40;;;7.60;99.90;;;;;;5089609;28;20233;-74
2022/11/30 09:21:10;;;;;;;35.17;17.90;;;7.50;99.90;;;;;;5091257;28;20168;-73
2022/11/30 09:23:37;;;;;;;39.40;20.13;;;7.50;99.90;;;;;;5088623;28;20270;-72
2022/11/30 09:26:12;;;;;;;39.00;20.37;;;7.20;99.90;;;;;;5090562;28;20212;-74
2022/11/30 09:28:37;;;;;;;38.33;20.80;;;6.90;99.90;;;;;;5091748;28;20181;-75
2022/11/30 09:31:06;;;;;;;37.13;19.87;;;7.10;99.90;;;;;;5092173;28;20250;-74
2022/11/30 09:33:32;;;;;;;38.80;19.40;;;7.10;99.90;;;;;;5095790;28;20291;-74
2022/11/30 09:36:01;;;;;;;31.00;18.50;;;7.30;99.90;;;;;;5104897;28;20183;-74
2022/11/30 09:38:27;;;;;;;35.07;19.17;;;7.30;99.90;;;;;;5101170;28;20210;-73
2022/11/30 09:41:01;;;;;;;33.77;18.97;;;7.60;99.90;;;;;;5107346;28;20250;-72
2022/11/30 09:43:37;;;;;;;33.07;18.27;;;7.80;99.90;;;;;;5102610;28;20282;-72
2022/11/30 09:46:05;;;;;;;32.87;18.30;;;7.70;99.90;;;;;;5097984;28;20175;-72
2022/11/30 09:48:55;;;;;;;29.90;18.00;;;8.00;99.90;;;;;;5111856;28;20171;-73
2022/11/30 09:51:46;;;;;;;35.50;19.50;;;8.30;99.90;;;;;;5074562;28;20168;-73
2022/11/30 09:54:16;;;;;;;36.40;19.73;;;8.70;99.90;;;;;;5078613;28;20233;-73
2022/11/30 09:56:43;;;;;;;37.07;19.37;;;8.90;99.90;;;;;;5080519;28;20200;-72
2022/11/30 09:59:23;;;;;;;35.13;19.70;;;8.90;99.90;;;;;;5071171;28;20293;-73
2022/11/30 10:01:49;;;;;;;33.17;19.33;;;8.90;99.90;;;;;;5105244;28;20175;-72
2022/11/30 10:04:24;;;;;;;36.67;19.20;;;9.00;99.90;;;;;;5090043;28;20176;-73
2022/11/30 10:07:21;;;;;;;33.47;19.73;;;9.30;99.90;;;;;;5086093;28;20187;-73
2022/11/30 10:10:11;;;;;;;31.73;18.60;;;9.40;99.90;;;;;;5084871;28;20186;-73
2022/11/30 10:12:52;;;;;;;30.27;18.87;;;9.30;99.90;;;;;;5095166;28;20183;-73
2022/11/30 10:15:32;;;;;;;34.63;19.17;;;9.50;99.90;;;;;;5091245;28;20236;-72
2022/11/30 10:18:10;;;;;;;37.50;18.43;;;9.50;99.90;;;;;;5092019;28;20199;-73
2022/11/30 10:20:47;;;;;;;28.77;17.90;;;9.60;99.90;;;;;;5092026;28;20163;-72
2022/11/30 10:23:27;;;;;;;26.93;16.47;;;9.40;99.90;;;;;;5081586;28;20186;-77
2022/11/30 10:25:57;;;;;;;27.23;15.47;;;8.90;99.90;;;;;;5072052;28;20179;-73
2022/11/30 10:28:53;;;;;;;29.47;16.57;;;8.40;99.90;;;;;;5087022;28;20188;-74
2022/11/30 10:31:27;;;;;;;27.37;16.97;;;8.50;99.90;;;;;;5091341;28;20180;-71
2022/11/30 10:33:57;;;;;;;25.43;16.40;;;8.30;99.90;;;;;;5090357;28;20223;-74
2022/11/30 10:36:43;;;;;;;28.00;15.93;;;8.20;99.90;;;;;;5102251;28;20497;-73
2022/11/30 10:39:29;;;;;;;32.50;17.90;;;8.00;99.90;;;;;;5075049;28;20208;-72
2022/11/30 10:42:20;;;;;;;27.63;18.20;;;7.90;99.90;;;;;;5082725;28;20238;-73
2022/11/30 10:44:58;;;;;;;31.77;18.20;;;7.80;99.90;;;;;;5083107;28;20618;-72
2022/11/30 10:47:35;;;;;;;34.87;18.87;;;8.00;99.90;;;;;;5093783;28;20254;-74
2022/11/30 10:50:03;;;;;;;30.87;17.57;;;8.10;99.90;;;;;;5092488;28;20175;-74
2022/11/30 10:52:53;;;;;;;34.53;19.40;;;8.10;99.90;;;;;;5097066;28;20199;-73
2022/11/30 10:55:33;;;;;;;39.33;20.07;;;8.40;99.90;;;;;;5094662;28;20179;-73
2022/11/30 10:58:12;;;;;;;35.93;19.87;;;8.60;99.90;;;;;;5088430;28;20584;-72
2022/11/30 11:00:37;;;;;;;38.60;20.00;;;8.40;99.90;;;;;;5087669;28;20639;-71
2022/11/30 11:03:22;;;;;;;36.07;19.70;;;8.20;99.90;;;;;;5085732;28;20255;-73
2022/11/30 11:06:03;;;;;;;36.07;19.77;;;8.50;99.90;;;;;;5105155;28;20224;-73
2022/11/30 11:08:29;;;;;;;35.80;20.07;;;8.80;99.90;;;;;;5109445;28;20206;-73
2022/11/30 11:10:54;;;;;;;37.43;20.40;;;8.90;99.90;;;;;;5095339;28;20175;-72
2022/11/30 11:13:43;;;;;;;35.77;21.10;;;9.20;99.90;;;;;;5094414;28;20176;-73
2022/11/30 11:16:11;;;;;;;34.57;20.23;;;9.50;99.90;;;;;;5088509;28;20175;-73
2022/11/30 11:18:53;;;;;;;36.67;20.73;;;9.70;99.90;;;;;;5085678;28;20238;-73
2022/11/30 11:21:21;;;;;;;36.10;21.13;;;9.80;99.90;;;;;;5095870;28;20262;-73
2022/11/30 11:23:50;;;;;;;36.23;21.43;;;10.00;99.90;;;;;;5102976;28;20653;-72
2022/11/30 11:26:23;;;;;;;35.50;22.23;;;10.10;99.90;;;;;;5097005;28;20266;-74
2022/11/30 11:28:51;;;;;;;38.00;22.70;;;10.00;99.90;;;;;;5094228;28;20179;-72
2022/11/30 11:31:31;;;;;;;41.20;22.10;;;10.00;99.90;;;;;;5098352;28;20239;-72
2022/11/30 11:33:57;;;;;;;43.10;24.07;;;10.00;99.90;;;;;;5090350;28;20666;-72
2022/11/30 11:36:32;;;;;;;37.37;22.93;;;10.10;99.90;;;;;;5104525;28;20176;-72
2022/11/30 11:38:59;;;;;;;37.93;23.13;;;9.90;99.90;;;;;;5088255;28;20214;-72
2022/11/30 11:41:36;;;;;;;39.30;23.20;;;9.80;99.90;;;;;;5092611;28;20263;-73
2022/11/30 11:44:08;;;;;;;38.17;22.83;;;9.50;99.90;;;;;;5094202;28;20172;-74
2022/11/30 11:46:36;;;;;;;34.63;21.27;;;8.60;99.90;;;;;;5092652;28;20188;-72
2022/11/30 11:49:17;;;;;;;38.87;22.70;;;8.30;99.90;;;;;;5094668;28;20183;-74
2022/11/30 11:51:44;;;;;;;41.93;23.40;;;8.30;99.90;;;;;;5094552;28;20160;-73
2022/11/30 11:54:26;;;;;;;41.90;24.33;;;8.40;99.90;;;;;;5092972;28;20174;-73
2022/11/30 11:56:53;;;;;;;42.20;25.47;;;8.60;99.90;;;;;;5079778;28;20270;-74
2022/11/30 11:59:41;;;;;;;42.03;24.37;;;8.80;99.90;;;;;;5092161;28;20295;-74
2022/11/30 12:02:30;;;;;;;42.67;25.33;;;9.10;99.90;;;;;;5094671;28;20513;-74
2022/11/30 12:05:13;;;;;;;45.87;25.40;;;9.30;99.90;;;;;;5086168;28;20184;-73
2022/11/30 12:07:53;;;;;;;45.60;26.77;;;9.40;99.90;;;;;;5082981;28;20700;-73
2022/11/30 12:10:40;;;;;;;41.53;23.90;;;9.40;99.90;;;;;;5093293;28;20246;-72
2022/11/30 12:13:41;;;;;;;41.40;24.20;;;9.30;99.90;;;;;;5076055;28;20184;-73
2022/11/30 12:16:35;;;;;;;35.30;23.10;;;9.30;99.90;;;;;;5086969;28;20648;-74
2022/11/30 12:19:25;;;;;;;36.73;22.07;;;8.90;99.90;;;;;;5078813;28;20203;-71
2022/11/30 12:22:28;;;;;;;37.67;22.97;;;9.00;99.90;;;;;;5093604;28;20222;-72
2022/11/30 12:25:04;;;;;;;37.97;21.60;;;9.10;99.90;;;;;;5099215;28;20178;-74
2022/11/30 12:27:39;;;;;;;37.63;22.87;;;9.20;99.90;;;;;;5099640;28;20531;-71
2022/11/30 12:30:26;;;;;;;40.70;23.27;;;9.40;99.90;;;;;;5088352;28;20184;-72
2022/11/30 12:33:04;;;;;;;36.83;23.63;;;9.50;99.90;;;;;;5093515;28;20256;-73
2022/11/30 12:35:36;;;;;;;39.33;23.00;;;9.70;99.90;;;;;;5090617;28;20195;-72
2022/11/30 12:38:04;;;;;;;37.73;22.77;;;10.20;99.90;;;;;;5093410;28;20218;-73
2022/11/30 12:40:35;;;;;;;40.77;23.53;;;10.30;99.90;;;;;;5099109;28;20631;-73
2022/11/30 12:43:47;;;;;;;35.83;23.73;;;10.50;99.90;;;;;;5107466;28;20179;-74
2022/11/30 12:46:30;;;;;;;36.90;23.10;;;10.40;99.90;;;;;;5082924;28;20204;-73
2022/11/30 12:49:50;;;;;;;40.27;23.97;;;10.50;99.90;;;;;;5074966;28;20180;-73
2022/11/30 12:52:30;;;;;;;43.03;24.47;;;10.60;99.90;;;;;;5009803;28;20324;-72
2022/11/30 12:55:27;;;;;;;35.87;23.00;;;10.20;99.90;;;;;;5009920;28;20654;-73